createdAt,value
2023-05-02T00:00:55.436Z,7.78
2023-05-02T00:03:22.903Z,7.79
2023-05-02T00:05:49.981Z,7.77
2023-05-02T00:08:16.756Z,7.77
2023-05-02T00:10:43.422Z,7.76
2023-05-02T00:13:10.149Z,7.75
2023-05-02T00:15:36.761Z,7.73
2023-05-02T00:18:03.636Z,7.71
2023-05-02T00:20:30.404Z,7.69
2023-05-02T00:22:57.581Z,7.68
2023-05-02T00:25:24.314Z,7.67
2023-05-02T00:27:51.360Z,7.68
2023-05-02T00:30:18.794Z,7.69
2023-05-02T00:32:45.707Z,7.69
2023-05-02T00:35:12.597Z,7.68
2023-05-02T00:37:39.405Z,7.64
2023-05-02T00:40:08.104Z,7.61
2023-05-02T00:42:36.335Z,7.56
2023-05-02T00:45:07.063Z,7.53
2023-05-02T00:47:34.450Z,7.48
2023-05-02T00:50:02.202Z,7.44
2023-05-02T00:52:29.369Z,7.42
2023-05-02T00:54:56.488Z,7.40
2023-05-02T00:57:23.443Z,7.37
2023-05-02T00:59:51.293Z,7.35
2023-05-02T01:02:43.600Z,7.31
2023-05-02T01:05:16.802Z,7.29
2023-05-02T01:08:09.187Z,7.30
2023-05-02T01:10:53.297Z,8.00
2023-05-02T01:13:29.290Z,8.85
2023-05-02T01:16:00.012Z,9.29
2023-05-02T01:18:31.642Z,8.96
2023-05-02T01:21:03.050Z,8.51
2023-05-02T01:23:46.827Z,8.16
2023-05-02T01:26:28.731Z,7.87
2023-05-02T01:29:03.828Z,7.65
2023-05-02T01:31:37.991Z,7.47
2023-05-02T01:34:06.975Z,7.30
2023-05-02T01:36:36.281Z,7.29
2023-05-02T01:39:04.435Z,7.90
2023-05-02T01:41:32.409Z,8.59
2023-05-02T01:44:01.898Z,9.15
2023-05-02T01:46:33.306Z,9.39
2023-05-02T01:49:05.867Z,8.92
2023-05-02T01:51:35.234Z,8.36
2023-05-02T01:54:05.863Z,7.96
2023-05-02T01:56:35.534Z,7.66
2023-05-02T01:59:06.539Z,7.44
2023-05-02T02:01:35.130Z,7.24
2023-05-02T02:04:02.571Z,7.07
2023-05-02T02:06:31.385Z,7.06
2023-05-02T02:08:59.983Z,7.69
2023-05-02T02:11:34.965Z,8.39
2023-05-02T02:14:06.917Z,8.85
2023-05-02T02:16:56.169Z,8.54
2023-05-02T02:19:24.645Z,8.02
2023-05-02T02:21:51.635Z,7.70
2023-05-02T02:24:22.866Z,7.46
2023-05-02T02:26:49.534Z,7.27
2023-05-02T02:29:16.129Z,7.13
2023-05-02T02:31:42.872Z,7.14
2023-05-02T02:34:09.899Z,7.79
2023-05-02T02:36:48.033Z,8.53
2023-05-02T02:39:46.568Z,8.95
2023-05-02T02:42:36.163Z,8.50
2023-05-02T02:45:19.269Z,8.04
2023-05-02T02:47:54.378Z,7.72
2023-05-02T02:50:29.395Z,7.50
2023-05-02T02:53:21.282Z,7.34
2023-05-02T02:55:55.865Z,7.44
2023-05-02T02:58:54.567Z,8.26
2023-05-02T03:01:24.579Z,9.05
2023-05-02T03:03:52.077Z,9.25
2023-05-02T03:06:20.848Z,8.83
2023-05-02T03:08:48.224Z,8.41
2023-05-02T03:11:16.760Z,8.10
2023-05-02T03:13:43.404Z,7.90
2023-05-02T03:16:28.834Z,7.74
2023-05-02T03:18:55.630Z,7.62
2023-05-02T03:21:22.645Z,7.55
2023-05-02T03:23:49.737Z,7.50
2023-05-02T03:26:17.028Z,7.47
2023-05-02T03:28:47.138Z,7.44
2023-05-02T03:31:16.753Z,7.64
2023-05-02T03:33:43.587Z,8.56
2023-05-02T03:36:11.199Z,8.95
2023-05-02T03:38:38.162Z,8.64
2023-05-02T03:41:05.819Z,8.37
2023-05-02T03:43:32.584Z,8.20
2023-05-02T03:46:08.306Z,8.07
2023-05-02T03:48:35.815Z,7.99
2023-05-02T03:51:04.055Z,7.94
2023-05-02T03:53:37.718Z,7.91
2023-05-02T03:56:04.776Z,7.90
2023-05-02T03:58:36.353Z,7.91
2023-05-02T04:01:03.979Z,7.92
2023-05-02T04:03:30.608Z,7.94
2023-05-02T04:05:59.259Z,7.96
2023-05-02T04:08:26.226Z,7.99
2023-05-02T04:10:53.023Z,8.03
2023-05-02T04:13:19.728Z,8.07
2023-05-02T04:15:48.426Z,8.12
2023-05-02T04:18:18.226Z,8.16
2023-05-02T04:20:45.450Z,8.21
2023-05-02T04:23:14.471Z,8.27
2023-05-02T04:25:41.401Z,8.32
2023-05-02T04:28:07.892Z,8.38
2023-05-02T04:30:36.130Z,8.45
2023-05-02T04:33:07.407Z,8.52
2023-05-02T04:35:36.224Z,8.59
2023-05-02T04:38:03.598Z,8.66
2023-05-02T04:40:30.582Z,8.73
2023-05-02T04:43:01.885Z,8.82
2023-05-02T04:45:36.909Z,8.91
2023-05-02T04:48:06.454Z,9.01
2023-05-02T04:50:33.186Z,9.10
2023-05-02T04:52:59.798Z,9.19
2023-05-02T04:55:26.777Z,9.28
2023-05-02T04:57:53.324Z,9.38
2023-05-02T05:00:21.886Z,9.48
2023-05-02T05:02:48.632Z,9.57
2023-05-02T05:05:16.470Z,9.67
2023-05-02T05:07:43.486Z,9.75
2023-05-02T05:10:11.521Z,9.85
2023-05-02T05:12:46.335Z,9.94
2023-05-02T05:15:14.781Z,10.03
2023-05-02T05:17:45.469Z,10.13
2023-05-02T05:20:12.439Z,10.23
2023-05-02T05:22:40.030Z,10.30
2023-05-02T05:25:08.555Z,10.35
2023-05-02T05:27:35.914Z,10.40
2023-05-02T05:30:03.901Z,10.44
2023-05-02T05:32:33.521Z,10.49
2023-05-02T05:35:00.354Z,10.55
2023-05-02T05:37:27.292Z,10.63
2023-05-02T05:39:54.894Z,10.70
2023-05-02T05:42:22.504Z,10.79
2023-05-02T05:44:52.097Z,10.89
2023-05-02T05:47:22.436Z,11.02
2023-05-02T05:49:54.131Z,11.17
2023-05-02T05:52:21.341Z,11.36
2023-05-02T05:54:48.176Z,11.55
2023-05-02T05:57:14.728Z,11.72
2023-05-02T05:59:42.023Z,11.90
2023-05-02T06:02:09.489Z,12.08
2023-05-02T06:04:36.239Z,12.25
2023-05-02T06:07:02.998Z,12.41
2023-05-02T06:09:29.598Z,12.58
2023-05-02T06:11:56.141Z,12.76
2023-05-02T06:14:22.719Z,12.94
2023-05-02T06:16:49.468Z,13.15
2023-05-02T06:19:16.157Z,13.37
2023-05-02T06:21:42.788Z,13.60
2023-05-02T06:24:09.431Z,13.85
2023-05-02T06:26:36.791Z,14.07
2023-05-02T06:29:03.692Z,14.28
2023-05-02T06:31:30.297Z,14.52
2023-05-02T06:33:56.918Z,14.73
2023-05-02T06:36:23.471Z,14.94
2023-05-02T06:38:50.074Z,15.43
2023-05-02T06:41:18.231Z,16.63
2023-05-02T06:43:45.394Z,18.32
2023-05-02T06:46:12.137Z,20.17
2023-05-02T06:48:38.720Z,21.61
2023-05-02T06:51:05.405Z,22.94
2023-05-02T06:53:33.157Z,24.11
2023-05-02T06:56:00.179Z,25.18
2023-05-02T06:58:26.800Z,26.10
2023-05-02T07:00:53.381Z,26.90
2023-05-02T07:03:19.961Z,27.56
2023-05-02T07:05:46.658Z,28.08
2023-05-02T07:08:13.583Z,28.82
2023-05-02T07:10:40.208Z,29.54
2023-05-02T07:13:06.816Z,30.02
2023-05-02T07:15:33.441Z,30.31
2023-05-02T07:18:00.135Z,30.31
2023-05-02T07:20:26.751Z,30.02
2023-05-02T07:22:54.014Z,29.66
2023-05-02T07:25:21.202Z,29.29
2023-05-02T07:27:47.881Z,28.86
2023-05-02T07:30:14.599Z,28.50
2023-05-02T07:32:41.299Z,27.76
2023-05-02T07:35:08.737Z,27.85
2023-05-02T07:37:35.449Z,28.38
2023-05-02T07:40:02.507Z,29.03
2023-05-02T07:42:31.999Z,29.62
2023-05-02T07:44:59.425Z,29.99
2023-05-02T07:47:26.765Z,30.31
2023-05-02T07:49:56.606Z,30.89
2023-05-02T07:52:23.327Z,31.54
2023-05-02T07:54:50.667Z,32.26
2023-05-02T07:57:18.082Z,32.87
2023-05-02T07:59:44.818Z,33.14
2023-05-02T08:02:13.572Z,32.94
2023-05-02T08:04:41.223Z,32.70
2023-05-02T08:07:08.061Z,32.29
2023-05-02T08:09:34.741Z,31.74
2023-05-02T08:12:03.214Z,31.38
2023-05-02T08:14:29.807Z,31.30
2023-05-02T08:16:56.442Z,31.35
2023-05-02T08:19:22.959Z,31.60
2023-05-02T08:21:49.663Z,32.00
2023-05-02T08:24:16.177Z,32.28
2023-05-02T08:26:42.864Z,32.55
2023-05-02T08:29:11.545Z,32.82
2023-05-02T08:31:40.375Z,33.04
2023-05-02T08:34:07.059Z,33.23
2023-05-02T08:36:33.754Z,33.47
2023-05-02T08:39:00.360Z,33.85
2023-05-02T08:41:29.588Z,34.07
2023-05-02T08:43:57.126Z,33.56
2023-05-02T08:46:24.615Z,33.05
2023-05-02T08:48:52.535Z,32.77
2023-05-02T08:53:46.883Z,33.23
2023-05-02T08:56:13.682Z,33.34
2023-05-02T08:58:41.374Z,33.28
2023-05-02T09:01:19.572Z,32.70
2023-05-02T09:03:48.351Z,32.36
2023-05-02T09:06:20.778Z,32.05
2023-05-02T09:08:49.619Z,31.89
2023-05-02T09:11:17.444Z,31.72
2023-05-02T09:13:49.059Z,31.90
2023-05-02T09:16:18.189Z,32.34
2023-05-02T09:18:53.849Z,32.91
2023-05-02T09:21:26.927Z,32.95
2023-05-02T09:23:56.294Z,32.81
2023-05-02T09:26:22.829Z,32.95
2023-05-02T09:28:53.748Z,33.27
2023-05-02T09:31:54.372Z,33.02
2023-05-02T09:34:21.024Z,33.15
2023-05-02T09:36:54.732Z,33.08
2023-05-02T09:39:26.763Z,32.66
2023-05-02T09:41:54.191Z,32.74
2023-05-02T09:44:26.392Z,32.54
2023-05-02T09:46:54.837Z,32.39
2023-05-02T09:49:41.396Z,32.28
2023-05-02T09:52:16.195Z,32.45
2023-05-02T09:54:43.263Z,32.40
2023-05-02T09:57:11.303Z,32.31
2023-05-02T09:59:39.916Z,32.47
2023-05-02T10:02:09.685Z,32.90
2023-05-02T10:04:36.847Z,33.53
2023-05-02T10:07:03.904Z,33.52
2023-05-02T10:09:34.251Z,32.79
2023-05-02T10:12:08.232Z,32.23
2023-05-02T10:14:41.698Z,31.95
2023-05-02T10:17:21.540Z,31.86
2023-05-02T10:19:55.975Z,31.21
2023-05-02T10:22:23.226Z,30.20
2023-05-02T10:24:50.583Z,28.96
2023-05-02T10:27:17.273Z,28.20
2023-05-02T10:29:44.430Z,27.60
2023-05-02T10:32:11.328Z,26.89
2023-05-02T10:34:39.138Z,26.49
2023-05-02T10:37:05.704Z,26.25
2023-05-02T10:39:32.880Z,26.53
2023-05-02T10:42:04.955Z,27.17
2023-05-02T10:44:36.137Z,27.47
2023-05-02T10:47:26.627Z,27.69
2023-05-02T10:50:01.985Z,27.35
2023-05-02T10:52:31.698Z,26.60
2023-05-02T10:55:19.951Z,25.94
2023-05-02T10:58:02.034Z,25.08
2023-05-02T11:00:32.756Z,24.53
2023-05-02T11:03:00.615Z,23.85
2023-05-02T11:05:28.416Z,23.40
2023-05-02T11:08:19.287Z,23.12
2023-05-02T11:10:47.417Z,23.03
2023-05-02T11:13:14.147Z,22.99
2023-05-02T11:15:40.914Z,22.88
2023-05-02T11:18:09.375Z,22.69
2023-05-02T11:20:39.563Z,22.36
2023-05-02T11:23:27.515Z,21.98
2023-05-02T11:25:54.147Z,21.57
2023-05-02T11:28:45.884Z,21.25
2023-05-02T11:31:27.964Z,20.91
2023-05-02T11:34:02.713Z,20.66
2023-05-02T11:36:34.073Z,20.46
2023-05-02T11:39:03.504Z,20.36
2023-05-02T11:41:42.970Z,20.42
2023-05-02T11:44:09.910Z,20.58
2023-05-02T11:46:37.821Z,20.69
2023-05-02T11:49:07.631Z,20.73
2023-05-02T11:51:36.218Z,20.72
2023-05-02T11:54:03.991Z,20.70
2023-05-02T11:56:31.570Z,20.58
2023-05-02T11:59:08.278Z,20.51
2023-05-02T12:01:34.918Z,20.50
2023-05-02T12:04:03.517Z,20.49
2023-05-02T12:06:30.158Z,20.29
2023-05-02T12:09:08.256Z,20.02
2023-05-02T12:11:36.081Z,19.84
2023-05-02T12:14:03.812Z,19.83
2023-05-02T12:16:30.992Z,19.85
2023-05-02T12:18:59.669Z,20.09
2023-05-02T12:21:30.114Z,20.79
2023-05-02T12:23:57.443Z,21.72
2023-05-02T12:26:29.201Z,22.12
2023-05-02T12:28:57.316Z,22.17
2023-05-02T12:31:24.695Z,22.02
2023-05-02T12:33:52.538Z,21.66
2023-05-02T12:36:19.781Z,21.14
2023-05-02T12:38:54.937Z,20.63
2023-05-02T12:41:33.023Z,20.15
2023-05-02T12:44:01.055Z,19.73
2023-05-02T12:46:28.562Z,19.41
2023-05-02T12:49:06.142Z,19.23
2023-05-02T12:51:33.150Z,19.20
2023-05-02T12:54:00.029Z,19.27
2023-05-02T12:56:32.204Z,19.39
2023-05-02T12:59:05.200Z,19.48
2023-05-02T13:01:34.487Z,19.64
2023-05-02T13:04:01.360Z,20.02
2023-05-02T13:06:28.012Z,20.50
2023-05-02T13:08:54.625Z,20.77
2023-05-02T13:11:21.541Z,21.07
2023-05-02T13:13:48.192Z,21.62
2023-05-02T13:16:14.936Z,22.20
2023-05-02T13:18:41.880Z,22.64
2023-05-02T13:21:08.622Z,23.09
2023-05-02T13:23:35.296Z,23.49
2023-05-02T13:26:01.913Z,23.58
2023-05-02T13:28:33.124Z,23.29
2023-05-02T13:30:59.808Z,22.82
2023-05-02T13:33:26.637Z,22.33
2023-05-02T13:35:53.204Z,21.89
2023-05-02T13:38:19.842Z,21.49
2023-05-02T13:40:46.572Z,21.14
2023-05-02T13:43:13.258Z,20.79
2023-05-02T13:45:39.929Z,20.43
2023-05-02T13:48:06.695Z,20.08
2023-05-02T13:50:37.206Z,19.73
2023-05-02T13:53:03.771Z,19.45
2023-05-02T13:55:30.446Z,19.25
2023-05-02T13:57:57.064Z,19.07
2023-05-02T14:00:23.658Z,18.88
2023-05-02T14:02:50.315Z,18.72
2023-05-02T14:05:17.015Z,18.67
2023-05-02T14:07:43.840Z,18.72
2023-05-02T14:10:10.688Z,18.89
2023-05-02T14:12:37.374Z,19.11
2023-05-02T14:15:04.674Z,19.26
2023-05-02T14:17:32.421Z,19.30
2023-05-02T14:19:59.285Z,19.30
2023-05-02T14:22:26.085Z,19.29
2023-05-02T14:24:52.630Z,19.32
2023-05-02T14:27:19.244Z,19.36
2023-05-02T14:29:46.858Z,19.42
2023-05-02T14:32:13.883Z,19.47
2023-05-02T14:34:41.589Z,19.48
2023-05-02T14:37:09.266Z,19.42
2023-05-02T14:39:36.944Z,19.36
2023-05-02T14:42:04.697Z,19.35
2023-05-02T14:44:31.930Z,19.36
2023-05-02T14:46:58.800Z,19.38
2023-05-02T14:49:27.033Z,19.36
2023-05-02T14:51:54.260Z,19.33
2023-05-02T14:54:27.132Z,19.28
2023-05-02T14:56:54.047Z,19.23
2023-05-02T14:59:21.314Z,19.17
2023-05-02T15:01:48.095Z,19.12
2023-05-02T15:04:15.120Z,19.08
2023-05-02T15:06:41.939Z,19.05
2023-05-02T15:09:08.732Z,18.99
2023-05-02T15:11:35.496Z,18.92
2023-05-02T15:14:02.106Z,18.84
2023-05-02T15:16:29.777Z,18.78
2023-05-02T15:18:56.571Z,18.74
2023-05-02T15:21:23.268Z,18.71
2023-05-02T15:23:49.929Z,18.67
2023-05-02T15:26:16.641Z,18.63
2023-05-02T15:28:43.457Z,18.55
2023-05-02T15:31:10.023Z,18.47
2023-05-02T15:33:38.614Z,18.41
2023-05-02T15:36:05.391Z,18.37
2023-05-02T15:38:34.051Z,18.38
2023-05-02T15:41:00.687Z,18.39
2023-05-02T15:43:27.433Z,18.38
2023-05-02T15:45:55.495Z,18.36
2023-05-02T15:48:23.237Z,18.31
2023-05-02T15:50:49.994Z,18.25
2023-05-02T15:53:16.929Z,18.16
2023-05-02T15:55:45.907Z,18.06
2023-05-02T15:58:13.721Z,17.95
2023-05-02T16:00:40.403Z,17.86
2023-05-02T16:03:07.163Z,17.80
2023-05-02T16:05:37.527Z,17.75
2023-05-02T16:08:05.313Z,17.70
2023-05-02T16:10:32.156Z,17.69
2023-05-02T16:12:58.869Z,17.68
2023-05-02T16:15:26.568Z,17.67
2023-05-02T16:17:53.268Z,17.66
2023-05-02T16:20:20.045Z,17.63
2023-05-02T16:22:47.683Z,17.63
2023-05-02T16:25:16.178Z,17.63
2023-05-02T16:27:43.263Z,17.62
2023-05-02T16:30:10.802Z,17.61
2023-05-02T16:32:38.120Z,17.60
2023-05-02T16:35:07.393Z,17.57
2023-05-02T16:37:35.426Z,17.53
2023-05-02T16:40:03.123Z,17.50
2023-05-02T16:42:30.241Z,17.47
2023-05-02T16:44:57.570Z,17.44
2023-05-02T16:47:24.262Z,17.41
2023-05-02T16:49:58.287Z,17.39
2023-05-02T16:52:26.138Z,17.35
2023-05-02T16:54:53.052Z,17.30
2023-05-02T16:57:21.150Z,17.27
2023-05-02T16:59:52.448Z,17.21
2023-05-02T17:02:23.639Z,17.15
2023-05-02T17:04:50.430Z,17.08
2023-05-02T17:07:17.624Z,17.01
2023-05-02T17:09:44.643Z,16.93
2023-05-02T17:12:12.581Z,16.86
2023-05-02T17:14:42.648Z,16.78
2023-05-02T17:17:09.415Z,16.72
2023-05-02T17:19:36.763Z,16.66
2023-05-02T17:22:05.171Z,16.59
2023-05-02T17:24:32.997Z,16.51
2023-05-02T17:26:59.979Z,16.44
2023-05-02T17:29:26.912Z,16.36
2023-05-02T17:31:53.562Z,16.29
2023-05-02T17:34:25.631Z,16.22
2023-05-02T17:36:52.250Z,16.15
2023-05-02T17:39:18.914Z,16.08
2023-05-02T17:41:45.475Z,16.00
2023-05-02T17:44:12.038Z,15.95
2023-05-02T17:46:38.698Z,15.90
2023-05-02T17:49:05.278Z,15.84
2023-05-02T17:51:33.833Z,15.80
2023-05-02T17:54:13.201Z,15.75
2023-05-02T17:56:40.344Z,15.69
2023-05-02T17:59:06.861Z,15.65
2023-05-02T18:01:33.639Z,15.59
2023-05-02T18:04:00.922Z,15.53
2023-05-02T18:06:28.328Z,15.46
2023-05-02T18:08:55.094Z,15.40
2023-05-02T18:11:24.139Z,15.35
2023-05-02T18:13:51.436Z,15.29
2023-05-02T18:16:18.716Z,15.24
2023-05-02T18:18:45.723Z,15.19
2023-05-02T18:21:20.727Z,15.13
2023-05-02T18:23:47.267Z,15.08
2023-05-02T18:26:14.200Z,15.03
2023-05-02T18:28:42.681Z,14.98
2023-05-02T18:31:17.663Z,14.93
2023-05-02T18:33:44.560Z,14.88
2023-05-02T18:36:11.234Z,14.82
2023-05-02T18:38:37.932Z,14.77
2023-05-02T18:41:04.575Z,14.72
2023-05-02T18:43:33.565Z,14.67
2023-05-02T18:46:00.281Z,14.63
2023-05-02T18:48:27.253Z,14.58
2023-05-02T18:50:57.590Z,14.52
2023-05-02T18:53:26.379Z,14.47
2023-05-02T18:55:54.025Z,14.41
2023-05-02T18:58:21.847Z,14.36
2023-05-02T19:00:48.783Z,14.30
2023-05-02T19:03:15.506Z,14.24
2023-05-02T19:05:43.191Z,14.19
2023-05-02T19:08:09.927Z,14.14
2023-05-02T19:10:36.474Z,14.09
2023-05-02T19:13:03.767Z,14.06
2023-05-02T19:15:30.468Z,14.03
2023-05-02T19:17:58.026Z,14.00
2023-05-02T19:20:24.879Z,13.99
2023-05-02T19:22:57.748Z,13.99
2023-05-02T19:25:29.829Z,14.01
2023-05-02T19:27:56.474Z,14.02
2023-05-02T19:30:23.074Z,14.03
2023-05-02T19:32:50.378Z,14.16
2023-05-02T19:35:17.245Z,14.85
2023-05-02T19:37:44.059Z,15.57
2023-05-02T19:40:11.867Z,15.95
2023-05-02T19:42:39.338Z,15.71
2023-05-02T19:45:06.644Z,15.37
2023-05-02T19:47:33.612Z,15.11
2023-05-02T19:50:00.325Z,14.91
2023-05-02T19:52:27.048Z,14.74
2023-05-02T19:54:53.890Z,14.64
2023-05-02T19:57:20.682Z,14.56
2023-05-02T19:59:47.312Z,14.46
2023-05-02T20:02:13.956Z,14.38
2023-05-02T20:04:40.616Z,14.31
2023-05-02T20:07:07.316Z,14.25
2023-05-02T20:09:33.966Z,14.18
2023-05-02T20:12:00.799Z,14.11
2023-05-02T20:14:27.413Z,14.05
2023-05-02T20:17:01.217Z,14.03
2023-05-02T20:19:29.743Z,14.06
2023-05-02T20:21:56.764Z,14.29
2023-05-02T20:24:23.536Z,15.09
2023-05-02T20:26:50.280Z,15.74
2023-05-02T20:29:16.877Z,15.61
2023-05-02T20:31:43.572Z,15.30
2023-05-02T20:34:10.463Z,15.05
2023-05-02T20:36:37.257Z,14.83
2023-05-02T20:39:05.617Z,14.64
2023-05-02T20:41:33.299Z,14.47
2023-05-02T20:44:01.361Z,14.32
2023-05-02T20:46:29.100Z,14.21
2023-05-02T20:48:55.941Z,14.10
2023-05-02T20:51:22.561Z,14.02
2023-05-02T20:53:49.611Z,14.11
2023-05-02T20:56:18.500Z,14.76
2023-05-02T20:58:45.083Z,15.39
2023-05-02T21:01:12.189Z,15.82
2023-05-02T21:03:41.205Z,15.99
2023-05-02T21:06:08.224Z,15.57
2023-05-02T21:08:34.999Z,15.06
2023-05-02T21:11:01.741Z,14.73
2023-05-02T21:13:28.383Z,14.98
2023-05-02T21:15:55.126Z,15.45
2023-05-02T21:18:21.883Z,15.78
2023-05-02T21:20:48.914Z,16.00
2023-05-02T21:23:17.629Z,16.16
2023-05-02T21:25:44.346Z,16.27
2023-05-02T21:28:11.606Z,16.35
2023-05-02T21:30:38.271Z,16.40
2023-05-02T21:33:04.926Z,16.45
2023-05-02T21:35:34.096Z,16.36
2023-05-02T21:38:01.777Z,15.72
2023-05-02T21:40:31.454Z,15.06
2023-05-02T21:42:58.088Z,14.85
2023-05-02T21:45:24.619Z,15.73
2023-05-02T21:47:51.262Z,16.14
2023-05-02T21:50:18.534Z,16.35
2023-05-02T21:52:48.182Z,16.37
2023-05-02T21:55:14.807Z,15.75
2023-05-02T21:57:41.499Z,15.01
2023-05-02T22:00:11.841Z,14.55
2023-05-02T22:02:38.674Z,14.86
2023-05-02T22:05:06.030Z,15.84
2023-05-02T22:07:32.660Z,16.74
2023-05-02T22:10:01.673Z,16.07
2023-05-02T22:12:28.713Z,15.16
2023-05-02T22:14:55.346Z,14.43
2023-05-02T22:17:22.802Z,14.38
2023-05-02T22:19:51.723Z,16.03
2023-05-02T22:22:18.360Z,16.97
2023-05-02T22:24:54.650Z,16.24
2023-05-02T22:27:21.604Z,15.31
2023-05-02T22:29:48.245Z,14.62
2023-05-02T22:32:14.903Z,14.07
2023-05-02T22:34:41.611Z,13.92
2023-05-02T22:37:08.655Z,14.92
2023-05-02T22:39:35.707Z,16.02
2023-05-02T22:42:03.135Z,16.32
2023-05-02T22:44:30.106Z,15.50
2023-05-02T22:46:57.512Z,14.60
2023-05-02T22:49:24.479Z,14.23
2023-05-02T22:51:52.166Z,15.10
2023-05-02T22:54:18.844Z,16.07
2023-05-02T22:56:45.349Z,16.52
2023-05-02T22:59:11.924Z,15.77
2023-05-02T23:01:38.666Z,14.86
2023-05-02T23:04:05.382Z,14.43
2023-05-02T23:06:32.211Z,15.34
2023-05-02T23:08:58.881Z,16.27
2023-05-02T23:11:25.976Z,16.62
2023-05-02T23:13:52.901Z,15.77
2023-05-02T23:16:19.448Z,14.83
2023-05-02T23:18:49.220Z,14.14
2023-05-02T23:21:16.852Z,13.97
2023-05-02T23:23:43.475Z,14.98
2023-05-02T23:26:10.931Z,15.96
2023-05-02T23:28:37.824Z,16.30
2023-05-02T23:31:05.320Z,15.59
2023-05-02T23:33:32.460Z,14.74
2023-05-02T23:35:59.460Z,14.31
2023-05-02T23:38:26.227Z,15.03
2023-05-02T23:40:52.848Z,15.88
2023-05-02T23:43:20.769Z,16.36
2023-05-02T23:45:47.327Z,16.25
2023-05-02T23:48:13.886Z,15.35
2023-05-02T23:50:40.443Z,14.43
2023-05-02T23:53:07.676Z,14.03
2023-05-02T23:55:34.253Z,14.99
2023-05-02T23:58:00.817Z,16.06
